createdAt,value
2023-02-18T00:01:30.344Z,101395.69
2023-02-18T00:03:58.441Z,101394.13
2023-02-18T00:06:32.791Z,101398.69
2023-02-18T00:09:02.184Z,101396.03
2023-02-18T00:11:30.988Z,101399.50
2023-02-18T00:14:00.045Z,101406.03
2023-02-18T00:16:28.288Z,101397.78
2023-02-18T00:18:57.059Z,101404.63
2023-02-18T00:21:23.862Z,101408.44
2023-02-18T00:23:51.173Z,101404.16
2023-02-18T00:26:19.184Z,101390.78
2023-02-18T00:28:51.881Z,101379.59
2023-02-18T00:31:22.149Z,101382.03
2023-02-18T00:33:48.908Z,101372.84
2023-02-18T00:36:17.406Z,101384.25
2023-02-18T00:38:46.416Z,101378.34
2023-02-18T00:41:13.623Z,101381.25
2023-02-18T00:43:40.262Z,101381.25
2023-02-18T00:46:07.801Z,101390.44
2023-02-18T00:48:35.024Z,101392.31
2023-02-18T00:51:04.284Z,101388.59
2023-02-18T00:53:31.118Z,101389.72
2023-02-18T00:55:58.155Z,101383.97
2023-02-18T00:58:25.231Z,101378.13
2023-02-18T01:00:52.175Z,101382.78
2023-02-18T01:03:19.095Z,101379.41
2023-02-18T01:05:45.888Z,101381.53
2023-02-18T01:08:12.654Z,101377.97
2023-02-18T01:10:44.835Z,101374.63
2023-02-18T01:13:12.502Z,101362.44
2023-02-18T01:15:40.887Z,101371.72
2023-02-18T01:18:08.612Z,101374.22
2023-02-18T01:20:37.081Z,101365.59
2023-02-18T01:23:04.921Z,101371.03
2023-02-18T01:25:32.498Z,101367.91
2023-02-18T01:28:00.914Z,101361.97
2023-02-18T01:30:28.340Z,101357.59
2023-02-18T01:32:56.553Z,101362.44
2023-02-18T01:35:24.148Z,101347.94
2023-02-18T01:37:51.335Z,101349.75
2023-02-18T01:40:25.073Z,101343.97
2023-02-18T01:42:52.895Z,101345.72
2023-02-18T01:45:34.806Z,101341.53
2023-02-18T01:48:17.241Z,101340.34
2023-02-18T01:50:47.320Z,101336.31
2023-02-18T01:53:21.734Z,101331.84
2023-02-18T01:55:49.448Z,101328.53
2023-02-18T01:58:16.792Z,101325.22
2023-02-18T02:00:45.597Z,101323.09
2023-02-18T02:03:14.545Z,101316.09
2023-02-18T02:05:43.747Z,101319.84
2023-02-18T02:08:14.522Z,101315.50
2023-02-18T02:10:50.453Z,101306.09
2023-02-18T02:13:54.054Z,101304.66
2023-02-18T02:16:26.677Z,101293.69
2023-02-18T02:19:12.905Z,101293.69
2023-02-18T02:22:14.289Z,101291.22
2023-02-18T02:24:59.178Z,101293.69
2023-02-18T02:28:20.671Z,101282.09
2023-02-18T02:30:53.149Z,101271.38
2023-02-18T02:33:57.181Z,101263.94
2023-02-18T02:36:38.474Z,101259.09
2023-02-18T02:39:24.124Z,101246.09
2023-02-18T02:42:20.006Z,101249.22
2023-02-18T02:45:01.990Z,101237.31
2023-02-18T02:47:54.773Z,101240.28
2023-02-18T02:50:30.561Z,101232.41
2023-02-18T02:53:02.407Z,101222.09
2023-02-18T02:55:29.092Z,101221.25
2023-02-18T02:57:57.067Z,101215.56
2023-02-18T03:00:58.774Z,101213.31
2023-02-18T03:03:35.116Z,101220.19
2023-02-18T03:06:21.273Z,101204.19
2023-02-18T03:09:15.277Z,101212.00
2023-02-18T03:12:11.048Z,101208.81
2023-02-18T03:14:55.185Z,101208.41
2023-02-18T03:17:27.737Z,101194.44
2023-02-18T03:20:13.494Z,101195.81
2023-02-18T03:22:46.585Z,101190.09
2023-02-18T03:25:14.710Z,101179.72
2023-02-18T03:27:56.582Z,101175.16
2023-02-18T03:30:42.180Z,101174.38
2023-02-18T03:33:14.224Z,101168.44
2023-02-18T03:35:43.619Z,101168.41
2023-02-18T03:38:24.798Z,101163.56
2023-02-18T03:40:51.928Z,101161.41
2023-02-18T03:43:19.191Z,101151.66
2023-02-18T03:45:45.974Z,101147.41
2023-02-18T03:48:12.630Z,101151.97
2023-02-18T03:50:39.188Z,101144.41
2023-02-18T03:53:05.827Z,101146.41
2023-02-18T03:55:32.451Z,101137.31
2023-02-18T03:57:59.026Z,101134.66
2023-02-18T04:00:25.625Z,101123.63
2023-02-18T04:02:52.156Z,101126.56
2023-02-18T04:05:18.786Z,101126.91
2023-02-18T04:07:45.393Z,101121.94
2023-02-18T04:10:12.304Z,101120.19
2023-02-18T04:12:38.950Z,101119.16
2023-02-18T04:15:06.124Z,101114.72
2023-02-18T04:17:34.040Z,101113.13
2023-02-18T04:20:00.834Z,101111.59
2023-02-18T04:22:27.703Z,101102.03
2023-02-18T04:24:54.313Z,101099.63
2023-02-18T04:27:20.973Z,101098.44
2023-02-18T04:29:47.786Z,101092.69
2023-02-18T04:32:14.428Z,101088.91
2023-02-18T04:34:41.012Z,101088.91
2023-02-18T04:37:07.676Z,101087.50
2023-02-18T04:39:34.496Z,101086.63
2023-02-18T04:42:01.490Z,101083.31
2023-02-18T04:44:27.988Z,101079.84
2023-02-18T04:46:54.560Z,101073.31
2023-02-18T04:49:21.104Z,101077.34
2023-02-18T04:51:47.651Z,101067.56
2023-02-18T04:54:14.298Z,101066.66
2023-02-18T04:56:40.844Z,101072.97
2023-02-18T04:59:07.414Z,101076.03
2023-02-18T05:01:34.118Z,101072.84
2023-02-18T05:04:00.861Z,101068.41
2023-02-18T05:06:27.465Z,101066.25
2023-02-18T05:08:54.110Z,101065.50
2023-02-18T05:11:20.857Z,101063.41
2023-02-18T05:13:47.534Z,101061.69
2023-02-18T05:16:14.170Z,101051.31
2023-02-18T05:18:41.222Z,101048.59
2023-02-18T05:21:08.195Z,101040.31
2023-02-18T05:23:34.831Z,101038.44
2023-02-18T05:26:01.503Z,101033.22
2023-02-18T05:28:28.334Z,101026.16
2023-02-18T05:30:55.124Z,101024.59
2023-02-18T05:33:21.834Z,101021.09
2023-02-18T05:35:49.306Z,101012.22
2023-02-18T05:38:16.121Z,101002.84
2023-02-18T05:40:42.732Z,100995.31
2023-02-18T05:43:09.390Z,100995.94
2023-02-18T05:45:36.668Z,100994.16
2023-02-18T05:48:03.552Z,100990.13
2023-02-18T05:50:30.130Z,100990.03
2023-02-18T05:52:56.716Z,100984.78
2023-02-18T05:55:24.378Z,100978.41
2023-02-18T05:57:51.139Z,100974.25
2023-02-18T06:00:18.584Z,100974.44
2023-02-18T06:02:45.317Z,100973.22
2023-02-18T06:05:14.457Z,100967.25
2023-02-18T06:07:41.070Z,100967.59
2023-02-18T06:10:08.223Z,100960.63
2023-02-18T06:12:34.777Z,100955.84
2023-02-18T06:15:01.376Z,100953.41
2023-02-18T06:17:27.942Z,100950.84
2023-02-18T06:19:54.487Z,100936.31
2023-02-18T06:22:22.268Z,100937.69
2023-02-18T06:24:48.888Z,100944.59
2023-02-18T06:27:15.459Z,100948.00
2023-02-18T06:29:42.185Z,100952.41
2023-02-18T06:32:08.896Z,100946.13
2023-02-18T06:34:35.481Z,100945.38
2023-02-18T06:37:02.021Z,100950.63
2023-02-18T06:39:29.145Z,100953.94
2023-02-18T06:41:55.744Z,100946.06
2023-02-18T06:44:22.376Z,100927.25
2023-02-18T06:46:48.993Z,100934.56
2023-02-18T06:49:15.628Z,100928.31
2023-02-18T06:51:42.243Z,100930.94
2023-02-18T06:54:08.911Z,100937.34
2023-02-18T06:56:35.565Z,100931.69
2023-02-18T06:59:02.117Z,100935.91
2023-02-18T07:01:28.745Z,100929.88
2023-02-18T07:03:55.932Z,100921.19
2023-02-18T07:06:22.670Z,100917.63
2023-02-18T07:08:49.276Z,100912.22
2023-02-18T07:11:16.149Z,100917.78
2023-02-18T07:13:42.697Z,100915.94
2023-02-18T07:16:09.738Z,100903.88
2023-02-18T07:18:36.407Z,100915.19
2023-02-18T07:21:03.198Z,100921.84
2023-02-18T07:23:29.802Z,100917.56
2023-02-18T07:26:04.622Z,100911.41
2023-02-18T07:28:31.288Z,100912.28
2023-02-18T07:30:57.999Z,100907.28
2023-02-18T07:33:24.699Z,100906.19
2023-02-18T07:35:56.633Z,100908.25
2023-02-18T07:38:24.713Z,100907.16
2023-02-18T07:40:52.068Z,100907.22
2023-02-18T07:43:18.813Z,100918.59
2023-02-18T07:45:45.639Z,100910.56
2023-02-18T07:48:13.086Z,100916.09
2023-02-18T07:50:41.459Z,100907.22
2023-02-18T07:53:09.051Z,100900.31
2023-02-18T07:55:51.812Z,100899.84
2023-02-18T07:58:19.377Z,100901.88
2023-02-18T08:00:47.637Z,100905.31
2023-02-18T08:03:16.397Z,100904.59
2023-02-18T08:05:43.577Z,100904.00
2023-02-18T08:08:13.791Z,100896.91
2023-02-18T08:10:40.561Z,100898.50
2023-02-18T08:13:07.356Z,100903.63
2023-02-18T08:15:34.011Z,100910.50
2023-02-18T08:18:01.510Z,100907.38
2023-02-18T08:20:30.612Z,100904.06
2023-02-18T08:22:57.680Z,100901.03
2023-02-18T08:25:29.765Z,100901.22
2023-02-18T08:27:56.732Z,100887.81
2023-02-18T08:30:23.440Z,100907.22
2023-02-18T08:32:50.122Z,100903.63
2023-02-18T08:35:17.069Z,100909.03
2023-02-18T08:37:52.606Z,100921.19
2023-02-18T08:40:21.292Z,100904.72
2023-02-18T08:42:48.067Z,100915.09
2023-02-18T08:45:17.283Z,100912.72
2023-02-18T08:48:17.766Z,100908.38
2023-02-18T08:50:30.370Z,100897.03
2023-02-18T08:52:57.919Z,100901.06
2023-02-18T08:55:25.080Z,100909.03
2023-02-18T08:57:51.638Z,100896.28
2023-02-18T09:00:19.268Z,100877.66
2023-02-18T09:02:47.403Z,100890.91
2023-02-18T09:05:14.653Z,100892.41
2023-02-18T09:07:41.400Z,100886.72
2023-02-18T09:10:12.813Z,100884.81
2023-02-18T09:12:39.374Z,100893.47
2023-02-18T09:15:06.371Z,100885.63
2023-02-18T09:17:33.827Z,100875.75
2023-02-18T09:20:00.518Z,100893.47
2023-02-18T09:22:27.288Z,100894.00
2023-02-18T09:24:53.913Z,100896.69
2023-02-18T09:27:22.074Z,100891.34
2023-02-18T09:29:49.585Z,100895.97
2023-02-18T09:32:32.593Z,100884.72
2023-02-18T09:35:00.709Z,100896.75
2023-02-18T09:37:27.354Z,100886.28
2023-02-18T09:39:53.994Z,100891.09
2023-02-18T09:42:28.098Z,100900.28
2023-02-18T09:44:59.025Z,100894.25
2023-02-18T09:47:34.760Z,100895.69
2023-02-18T09:50:08.578Z,100889.59
2023-02-18T09:52:38.368Z,100880.09
2023-02-18T09:55:22.698Z,100885.81
2023-02-18T09:57:55.940Z,100875.75
2023-02-18T10:00:32.861Z,100881.72
2023-02-18T10:03:15.252Z,100888.56
2023-02-18T10:05:51.725Z,100896.06
2023-02-18T10:08:30.236Z,100867.38
2023-02-18T10:10:57.258Z,100882.22
2023-02-18T10:13:33.793Z,100881.66
2023-02-18T10:16:02.044Z,100880.75
2023-02-18T10:18:41.921Z,100895.28
2023-02-18T10:21:15.169Z,100890.75
2023-02-18T10:23:54.573Z,100891.31
2023-02-18T10:26:21.811Z,100894.31
2023-02-18T10:28:48.698Z,100896.91
2023-02-18T10:31:25.991Z,100902.94
2023-02-18T10:33:59.107Z,100912.38
2023-02-18T10:36:31.764Z,100903.75
2023-02-18T10:38:58.265Z,100908.69
2023-02-18T10:41:27.944Z,100906.28
2023-02-18T10:44:17.567Z,100907.34
2023-02-18T10:47:04.063Z,100904.22
2023-02-18T10:49:33.761Z,100911.53
2023-02-18T10:52:04.794Z,100911.09
2023-02-18T10:54:57.846Z,100901.31
2023-02-18T10:57:25.447Z,100900.28
2023-02-18T11:00:01.700Z,100901.06
2023-02-18T11:02:32.499Z,100898.97
2023-02-18T11:05:16.547Z,100898.91
2023-02-18T11:07:48.814Z,100905.09
2023-02-18T11:10:30.335Z,100910.81
2023-02-18T11:13:05.568Z,100912.09
2023-02-18T11:15:32.414Z,100906.19
2023-02-18T11:18:14.700Z,100904.09
2023-02-18T11:20:42.085Z,100912.78
2023-02-18T11:23:19.522Z,100909.34
2023-02-18T11:26:00.667Z,100910.91
2023-02-18T11:28:49.966Z,100911.00
2023-02-18T11:31:22.173Z,100920.69
2023-02-18T11:34:00.875Z,100910.91
2023-02-18T11:36:33.448Z,100903.63
2023-02-18T11:39:18.595Z,100915.34
2023-02-18T11:41:56.081Z,100912.94
2023-02-18T11:44:42.314Z,100922.00
2023-02-18T11:47:15.051Z,100928.06
2023-02-18T11:49:43.624Z,100924.06
2023-02-18T11:52:33.356Z,100929.13
2023-02-18T11:54:59.898Z,100925.22
2023-02-18T11:57:28.121Z,100928.63
2023-02-18T11:59:55.342Z,100924.25
2023-02-18T12:02:31.615Z,100921.50
2023-02-18T12:05:04.407Z,100930.81
2023-02-18T12:08:09.823Z,100930.50
2023-02-18T12:10:38.230Z,100926.75
2023-02-18T12:13:38.374Z,100925.09
2023-02-18T12:16:41.918Z,100914.91
2023-02-18T12:19:37.136Z,100916.69
2023-02-18T12:22:40.705Z,100930.41
2023-02-18T12:25:25.990Z,100919.47
2023-02-18T12:28:02.101Z,100920.03
2023-02-18T12:30:31.932Z,100920.31
2023-02-18T12:33:46.405Z,100923.00
2023-02-18T12:36:34.953Z,100928.63
2023-02-18T12:39:19.536Z,100925.97
2023-02-18T12:42:23.371Z,100912.72
2023-02-18T12:44:58.975Z,100910.28
2023-02-18T12:47:47.346Z,100915.00
2023-02-18T12:50:36.825Z,100925.00
2023-02-18T12:53:20.421Z,100921.41
2023-02-18T12:56:05.340Z,100909.31
2023-02-18T12:58:34.713Z,100916.47
2023-02-18T13:01:22.650Z,100924.31
2023-02-18T13:04:00.957Z,100921.50
2023-02-18T13:06:33.666Z,100923.34
2023-02-18T13:09:16.618Z,100927.38
2023-02-18T13:12:01.530Z,100927.16
2023-02-18T13:14:59.302Z,100929.88
2023-02-18T13:17:29.751Z,100931.53
2023-02-18T13:20:01.763Z,100926.69
2023-02-18T13:22:31.014Z,100931.06
2023-02-18T13:24:59.785Z,100928.28
2023-02-18T13:27:29.392Z,100935.25
2023-02-18T13:30:07.885Z,100932.66
2023-02-18T13:32:48.491Z,100925.88
2023-02-18T13:35:29.582Z,100932.75
2023-02-18T13:38:24.061Z,100921.78
2023-02-18T13:40:51.470Z,100928.06
2023-02-18T13:43:21.098Z,100931.69
2023-02-18T13:46:06.521Z,100932.44
2023-02-18T13:48:40.430Z,100928.94
2023-02-18T13:51:07.460Z,100932.59
2023-02-18T13:53:57.362Z,100923.66
2023-02-18T13:56:30.023Z,100940.13
2023-02-18T13:59:08.067Z,100946.91
2023-02-18T14:01:41.495Z,100928.81
2023-02-18T14:04:32.962Z,100938.97
2023-02-18T14:07:27.806Z,100934.94
2023-02-18T14:09:59.735Z,100935.50
2023-02-18T14:12:37.634Z,100941.78
2023-02-18T14:15:27.598Z,100930.81
2023-02-18T14:18:12.651Z,100938.59
2023-02-18T14:20:39.236Z,100943.00
2023-02-18T14:23:39.343Z,100932.19
2023-02-18T14:26:07.483Z,100934.78
2023-02-18T14:28:34.000Z,100936.00
2023-02-18T14:31:03.584Z,100924.03
2023-02-18T14:33:35.129Z,100932.78
2023-02-18T14:36:16.965Z,100924.16
2023-02-18T14:38:57.166Z,100931.94
2023-02-18T14:41:46.216Z,100927.63
2023-02-18T14:44:31.625Z,100935.53
2023-02-18T14:47:10.355Z,100937.88
2023-02-18T14:49:39.506Z,100928.88
2023-02-18T14:52:22.157Z,100935.56
2023-02-18T14:54:49.470Z,100925.38
2023-02-18T14:57:20.457Z,100927.66
2023-02-18T14:59:48.467Z,100931.06
2023-02-18T15:02:30.773Z,100935.22
2023-02-18T15:05:15.460Z,100928.78
2023-02-18T15:07:42.054Z,100933.84
2023-02-18T15:10:15.960Z,100930.63
2023-02-18T15:12:42.750Z,100930.41
2023-02-18T15:15:15.632Z,100946.13
2023-02-18T15:17:47.640Z,100929.94
2023-02-18T15:20:15.544Z,100934.16
2023-02-18T15:22:42.642Z,100949.78
2023-02-18T15:25:13.227Z,100950.91
2023-02-18T15:27:45.874Z,100949.81
2023-02-18T15:30:31.415Z,100943.03
2023-02-18T15:33:00.880Z,100949.94
2023-02-18T15:35:31.484Z,100936.91
2023-02-18T15:37:59.915Z,100939.59
2023-02-18T15:40:32.112Z,100945.19
2023-02-18T15:43:02.059Z,100941.22
2023-02-18T15:45:38.901Z,100943.09
2023-02-18T15:48:06.180Z,100948.84
2023-02-18T15:50:38.518Z,100963.84
2023-02-18T15:53:08.957Z,100959.59
2023-02-18T15:55:39.188Z,100967.97
2023-02-18T15:58:13.677Z,100973.41
2023-02-18T16:00:47.150Z,100973.41
2023-02-18T16:03:22.784Z,100968.22
2023-02-18T16:05:50.177Z,100969.00
2023-02-18T16:08:24.673Z,100976.03
2023-02-18T16:10:56.880Z,100973.13
2023-02-18T16:13:26.805Z,100980.09
2023-02-18T16:15:53.897Z,100990.72
2023-02-18T16:18:41.202Z,100989.00
2023-02-18T16:21:25.942Z,100980.16
2023-02-18T16:23:59.405Z,100994.78
2023-02-18T16:26:38.305Z,100990.56
2023-02-18T16:29:16.255Z,100998.19
2023-02-18T16:31:43.614Z,100992.34
2023-02-18T16:34:10.399Z,101001.63
2023-02-18T16:36:37.146Z,100994.22
2023-02-18T16:39:04.011Z,100998.09
2023-02-18T16:41:30.815Z,100996.38
2023-02-18T16:43:57.513Z,101002.75
2023-02-18T16:46:25.078Z,100998.56
2023-02-18T16:48:55.843Z,101002.84
2023-02-18T16:51:25.887Z,101000.56
2023-02-18T16:53:52.503Z,101007.03
2023-02-18T16:56:22.704Z,101003.50
2023-02-18T16:58:50.878Z,101011.59
2023-02-18T17:01:23.256Z,101012.13
2023-02-18T17:03:51.416Z,101010.41
2023-02-18T17:06:18.472Z,101010.72
2023-02-18T17:08:45.302Z,101010.81
2023-02-18T17:11:22.294Z,101008.94
2023-02-18T17:13:50.324Z,101017.53
2023-02-18T17:16:17.186Z,101018.16
2023-02-18T17:18:44.923Z,101019.03
2023-02-18T17:21:16.885Z,101025.88
2023-02-18T17:23:43.881Z,101026.66
2023-02-18T17:26:20.980Z,101034.81
2023-02-18T17:28:47.681Z,101030.38
2023-02-18T17:31:18.897Z,101032.97
2023-02-18T17:33:46.516Z,101039.06
2023-02-18T17:36:13.689Z,101037.72
2023-02-18T17:38:40.731Z,101032.63
2023-02-18T17:41:08.169Z,101043.31
2023-02-18T17:43:34.892Z,101042.38
2023-02-18T17:46:01.674Z,101046.56
2023-02-18T17:48:28.451Z,101044.25
2023-02-18T17:50:55.655Z,101045.34
2023-02-18T17:53:22.587Z,101040.09
2023-02-18T17:55:49.921Z,101049.34
2023-02-18T17:58:16.924Z,101054.63
2023-02-18T18:00:45.320Z,101058.69
2023-02-18T18:03:13.858Z,101060.59
2023-02-18T18:05:42.175Z,101076.09
2023-02-18T18:08:09.520Z,101073.41
2023-02-18T18:10:39.569Z,101075.41
2023-02-18T18:13:09.238Z,101066.19
2023-02-18T18:15:41.699Z,101070.53
2023-02-18T18:18:10.862Z,101064.94
2023-02-18T18:20:38.793Z,101070.25
2023-02-18T18:23:08.051Z,101064.31
2023-02-18T18:25:38.700Z,101075.53
2023-02-18T18:28:06.788Z,101068.47
2023-02-18T18:30:35.807Z,101060.88
2023-02-18T18:33:03.656Z,101065.19
2023-02-18T18:35:33.370Z,101069.88
2023-02-18T18:38:00.786Z,101064.00
2023-02-18T18:40:29.656Z,101070.31
2023-02-18T18:42:57.603Z,101076.94
2023-02-18T18:45:25.777Z,101073.63
2023-02-18T18:47:53.868Z,101072.72
2023-02-18T18:50:21.978Z,101077.66
2023-02-18T18:52:50.318Z,101069.22
2023-02-18T18:55:35.604Z,101076.91
2023-02-18T18:58:02.700Z,101078.59
2023-02-18T19:00:32.667Z,101086.75
2023-02-18T19:03:00.178Z,101078.78
2023-02-18T19:05:26.798Z,101077.16
2023-02-18T19:07:53.979Z,101074.00
2023-02-18T19:10:21.041Z,101073.13
2023-02-18T19:12:49.379Z,101073.50
2023-02-18T19:15:19.760Z,101071.16
2023-02-18T19:17:52.830Z,101068.84
2023-02-18T19:20:26.036Z,101071.41
2023-02-18T19:22:52.699Z,101063.00
2023-02-18T19:25:20.527Z,101066.22
2023-02-18T19:27:48.997Z,101071.56
2023-02-18T19:30:28.111Z,101074.34
2023-02-18T19:32:57.566Z,101070.13
2023-02-18T19:35:26.345Z,101078.44
2023-02-18T19:37:53.151Z,101067.66
2023-02-18T19:40:22.735Z,101069.34
2023-02-18T19:42:49.300Z,101071.16
2023-02-18T19:45:17.640Z,101075.41
2023-02-18T19:47:44.619Z,101078.06
2023-02-18T19:50:14.774Z,101069.72
2023-02-18T19:52:41.402Z,101066.78
2023-02-18T19:55:08.425Z,101068.59
2023-02-18T19:57:35.136Z,101067.09
2023-02-18T20:00:03.561Z,101064.69
2023-02-18T20:02:40.134Z,101058.69
2023-02-18T20:05:07.897Z,101058.91
2023-02-18T20:07:36.264Z,101056.84
2023-02-18T20:10:04.783Z,101053.56
2023-02-18T20:12:32.005Z,101046.31
2023-02-18T20:14:58.650Z,101045.69
2023-02-18T20:17:25.454Z,101050.69
2023-02-18T20:19:52.013Z,101047.41
2023-02-18T20:22:18.615Z,101038.88
2023-02-18T20:24:45.303Z,101036.13
2023-02-18T20:27:12.731Z,101042.38
2023-02-18T20:29:39.517Z,101038.63
2023-02-18T20:32:06.868Z,101036.16
2023-02-18T20:34:33.612Z,101042.25
2023-02-18T20:37:01.038Z,101031.03
2023-02-18T20:39:28.071Z,101035.25
2023-02-18T20:41:55.036Z,101038.63
2023-02-18T20:44:21.973Z,101031.28
2023-02-18T20:46:49.686Z,101027.09
2023-02-18T20:49:18.946Z,101024.72
2023-02-18T20:51:45.680Z,101027.84
2023-02-18T20:54:15.795Z,101029.88
2023-02-18T20:56:43.748Z,101026.78
2023-02-18T20:59:14.841Z,101028.78
2023-02-18T21:01:42.976Z,101030.16
2023-02-18T21:04:12.399Z,101033.50
2023-02-18T21:06:39.627Z,101030.78
2023-02-18T21:09:06.650Z,101021.34
2023-02-18T21:11:33.543Z,101023.91
2023-02-18T21:14:00.688Z,101024.28
2023-02-18T21:16:28.719Z,101017.91
2023-02-18T21:18:55.411Z,101017.16
2023-02-18T21:21:23.658Z,101017.25
2023-02-18T21:23:50.979Z,101025.72
2023-02-18T21:26:20.513Z,101015.38
2023-02-18T21:28:48.070Z,101015.31
2023-02-18T21:31:20.280Z,101011.94
2023-02-18T21:33:47.627Z,101005.69
2023-02-18T21:36:14.472Z,101006.91
2023-02-18T21:38:44.443Z,100997.03
2023-02-18T21:41:12.597Z,100998.34
2023-02-18T21:43:39.577Z,100986.22
2023-02-18T21:46:14.569Z,100991.41
2023-02-18T21:48:59.961Z,100972.31
2023-02-18T21:51:45.445Z,100986.94
2023-02-18T21:54:12.176Z,100985.41
2023-02-18T21:56:38.780Z,100983.22
2023-02-18T21:59:05.326Z,100989.75
2023-02-18T22:01:31.929Z,100988.06
2023-02-18T22:03:58.567Z,100987.81
2023-02-18T22:06:25.169Z,100988.91
2023-02-18T22:08:51.784Z,100977.34
2023-02-18T22:11:18.932Z,100976.00
2023-02-18T22:13:45.623Z,100971.72
2023-02-18T22:16:12.204Z,100964.09
2023-02-18T22:18:38.827Z,100969.28
2023-02-18T22:21:09.663Z,100979.50
2023-02-18T22:23:36.612Z,100980.25
2023-02-18T22:26:08.057Z,100976.06
2023-02-18T22:28:35.695Z,100980.22
2023-02-18T22:31:11.167Z,100977.72
2023-02-18T22:33:38.480Z,100958.50
2023-02-18T22:36:09.411Z,100957.13
2023-02-18T22:38:37.851Z,100955.38
2023-02-18T22:41:11.674Z,100956.28
2023-02-18T22:43:39.299Z,100951.59
2023-02-18T22:46:11.790Z,100960.41
2023-02-18T22:48:39.784Z,100948.19
2023-02-18T22:51:09.839Z,100946.84
2023-02-18T22:53:37.955Z,100937.19
2023-02-18T22:56:10.522Z,100939.13
2023-02-18T22:58:37.100Z,100930.44
2023-02-18T23:01:05.033Z,100936.34
2023-02-18T23:03:33.245Z,100937.22
2023-02-18T23:06:04.835Z,100932.88
2023-02-18T23:08:32.996Z,100922.28
2023-02-18T23:11:01.612Z,100910.50
2023-02-18T23:13:28.400Z,100886.91
2023-02-18T23:16:00.367Z,100875.50
2023-02-18T23:18:27.799Z,100884.38
2023-02-18T23:21:21.166Z,100893.75
2023-02-18T23:23:50.084Z,100902.19
2023-02-18T23:26:17.722Z,100889.47
2023-02-18T23:28:47.694Z,100889.28
2023-02-18T23:31:23.800Z,100888.63
2023-02-18T23:33:59.670Z,100873.94
2023-02-18T23:36:31.952Z,100887.28
2023-02-18T23:39:01.589Z,100883.09
2023-02-18T23:41:29.161Z,100882.25
2023-02-18T23:43:55.855Z,100880.44
2023-02-18T23:46:24.945Z,100875.22
2023-02-18T23:48:54.231Z,100870.38
2023-02-18T23:51:22.623Z,100874.91
2023-02-18T23:53:49.943Z,100871.75
2023-02-18T23:56:21.743Z,100870.88
2023-02-18T23:58:52.338Z,100872.88
